Time;durP1;ratioP1;P1;durP2;ratioP2;P2;SDS_P1;SDS_P2;PMS_P1;PMS_P2;Temp;Humidity;BMP_temperature;BMP_pressure;BME280_temperature;BME280_humidity;BME280_pressure;Samples;Min_cycle;Max_cycle;Signal;HPM_P1;HPM_P2
2023/04/30 00:01:59;;;;;;;22.90;20.48;;;15.70;59.30;;;;;;4944990;28;20148;-80
2023/04/30 00:04:25;;;;;;;24.33;20.88;;;15.60;59.20;;;;;;4923629;29;20047;-80
2023/04/30 00:06:51;;;;;;;23.50;18.67;;;15.60;59.20;;;;;;4949575;28;20090;-80
2023/04/30 00:09:17;;;;;;;22.77;20.38;;;15.50;59.20;;;;;;4958193;28;20447;-80
2023/04/30 00:11:43;;;;;;;23.13;20.70;;;15.50;59.20;;;;;;4943322;28;20174;-80
2023/04/30 00:14:09;;;;;;;23.65;19.63;;;15.50;59.30;;;;;;4946840;28;20043;-80
2023/04/30 00:16:35;;;;;;;25.80;19.13;;;15.40;59.20;;;;;;4943836;28;20167;-80
2023/04/30 00:19:01;;;;;;;24.60;20.85;;;15.40;59.60;;;;;;4943854;28;20034;-80
2023/04/30 00:21:27;;;;;;;21.83;19.50;;;15.30;59.20;;;;;;4946702;28;20042;-80
2023/04/30 00:23:53;;;;;;;22.73;19.17;;;15.30;59.20;;;;;;4942598;28;20487;-79
2023/04/30 00:26:19;;;;;;;22.98;20.20;;;15.20;59.20;;;;;;4942622;28;20043;-79
2023/04/30 00:28:47;;;;;;;23.17;20.67;;;15.20;59.20;;;;;;4948127;28;20046;-79
2023/04/30 00:31:13;;;;;;;23.00;20.13;;;15.10;59.10;;;;;;4956426;28;20518;-79
2023/04/30 00:33:39;;;;;;;21.58;19.17;;;15.10;59.20;;;;;;4952330;28;20068;-80
2023/04/30 00:36:05;;;;;;;21.42;19.02;;;15.10;59.40;;;;;;4941147;28;20057;-78
2023/04/30 00:38:31;;;;;;;24.70;19.88;;;15.00;59.20;;;;;;4949721;28;20031;-77
2023/04/30 00:40:57;;;;;;;24.35;20.65;;;15.00;59.30;;;;;;4942296;28;20495;-78
2023/04/30 00:43:23;;;;;;;22.67;18.77;;;15.00;59.30;;;;;;4942140;28;20026;-81
2023/04/30 00:45:49;;;;;;;21.42;19.15;;;14.90;59.20;;;;;;4944643;28;20516;-81
2023/04/30 00:48:16;;;;;;;22.60;19.10;;;14.90;59.30;;;;;;4954586;28;20086;-79
2023/04/30 00:50:43;;;;;;;20.27;18.05;;;14.90;59.30;;;;;;4945336;28;20085;-81
2023/04/30 00:53:11;;;;;;;22.73;18.02;;;14.90;59.40;;;;;;4939787;28;20033;-80
2023/04/30 00:55:39;;;;;;;19.77;17.63;;;14.90;59.40;;;;;;4948313;28;20039;-80
2023/04/30 00:58:06;;;;;;;21.88;18.25;;;14.90;59.50;;;;;;4958608;28;20114;-80
2023/04/30 01:00:33;;;;;;;22.92;18.52;;;14.80;59.30;;;;;;4968267;28;20051;-79
2023/04/30 01:02:59;;;;;;;23.10;19.88;;;14.80;59.40;;;;;;4968103;28;20051;-80
2023/04/30 01:05:25;;;;;;;20.85;17.88;;;14.80;59.50;;;;;;4967482;28;20062;-80
2023/04/30 01:07:54;;;;;;;20.65;17.80;;;14.70;59.30;;;;;;4957823;28;20027;-80
2023/04/30 01:10:27;;;;;;;19.58;16.77;;;14.70;59.40;;;;;;4950580;28;20038;-80
2023/04/30 01:13:11;;;;;;;22.42;16.58;;;14.70;59.40;;;;;;4944043;28;20628;-80
2023/04/30 01:15:46;;;;;;;21.58;18.15;;;14.60;59.40;;;;;;4948722;28;20035;-81
2023/04/30 01:18:27;;;;;;;20.23;17.48;;;14.60;59.40;;;;;;4945531;28;20043;-79
2023/04/30 01:20:59;;;;;;;20.15;18.00;;;14.60;59.50;;;;;;4934493;28;20432;-80
2023/04/30 01:23:31;;;;;;;18.52;16.20;;;14.60;59.50;;;;;;4941570;28;20506;-80
2023/04/30 01:26:52;;;;;;;18.40;16.25;;;14.50;59.40;;;;;;4943032;28;20508;-80
2023/04/30 01:29:20;;;;;;;17.52;15.68;;;14.50;59.60;;;;;;4927364;28;20038;-79
2023/04/30 01:31:46;;;;;;;20.38;16.52;;;14.40;59.20;;;;;;4963508;28;20516;-79
2023/04/30 01:34:12;;;;;;;18.10;15.75;;;14.40;59.90;;;;;;4946417;28;20068;-78
2023/04/30 01:36:55;;;;;;;17.33;15.38;;;14.40;59.30;;;;;;4943992;28;20066;-80
2023/04/30 01:39:49;;;;;;;17.65;15.05;;;14.30;59.30;;;;;;4947256;28;20062;-80
2023/04/30 01:42:52;;;;;;;14.43;12.93;;;14.30;59.30;;;;;;4941396;29;20558;-78
2023/04/30 01:45:21;;;;;;;16.83;14.57;;;14.30;59.40;;;;;;4941879;29;20097;-78
2023/04/30 01:47:53;;;;;;;15.77;14.07;;;14.20;59.10;;;;;;4947137;28;20058;-79
2023/04/30 01:50:38;;;;;;;17.10;14.77;;;14.20;59.20;;;;;;4947129;29;20031;-80
2023/04/30 01:53:09;;;;;;;14.27;12.77;;;14.20;59.30;;;;;;4937286;28;20067;-80
2023/04/30 01:55:47;;;;;;;17.42;14.40;;;14.20;59.30;;;;;;4946863;28;20043;-81
2023/04/30 01:58:15;;;;;;;16.33;13.55;;;14.20;59.30;;;;;;4943863;29;20079;-80
2023/04/30 02:00:41;;;;;;;15.77;13.38;;;14.20;59.30;;;;;;4945700;29;20122;-79
2023/04/30 02:03:07;;;;;;;16.40;13.98;;;14.20;59.30;;;;;;4945518;28;20094;-80
2023/04/30 02:05:33;;;;;;;15.35;13.48;;;14.10;59.20;;;;;;4944649;28;20738;-79
2023/04/30 02:07:59;;;;;;;13.95;12.45;;;14.10;59.20;;;;;;4944577;29;20043;-79
2023/04/30 02:10:26;;;;;;;12.82;11.52;;;14.10;59.20;;;;;;4950399;28;20080;-80
2023/04/30 02:12:52;;;;;;;15.88;12.75;;;14.10;59.30;;;;;;4943150;28;20039;-79
2023/04/30 02:15:19;;;;;;;15.07;13.07;;;14.10;59.30;;;;;;4950160;28;20031;-78
2023/04/30 02:17:45;;;;;;;12.43;11.23;;;14.10;59.30;;;;;;4947160;28;20047;-78
2023/04/30 02:20:11;;;;;;;14.25;12.60;;;14.00;59.10;;;;;;4950518;28;20150;-79
2023/04/30 02:22:37;;;;;;;13.63;12.18;;;14.00;59.10;;;;;;4949515;28;20043;-79
2023/04/30 02:25:04;;;;;;;14.02;12.50;;;14.00;59.10;;;;;;4950679;28;20131;-79
2023/04/30 02:27:31;;;;;;;13.35;11.95;;;14.00;59.20;;;;;;4940193;28;20820;-79
2023/04/30 02:29:58;;;;;;;14.70;12.07;;;14.00;59.20;;;;;;4945614;28;20027;-80
2023/04/30 02:32:24;;;;;;;14.35;12.23;;;13.90;59.00;;;;;;4957740;28;20067;-80
2023/04/30 02:34:50;;;;;;;14.48;12.82;;;13.90;59.00;;;;;;4948306;28;20046;-80
2023/04/30 02:37:16;;;;;;;12.73;11.48;;;13.90;59.00;;;;;;4924970;28;20038;-79
2023/04/30 02:39:42;;;;;;;12.68;11.48;;;13.80;58.90;;;;;;4946628;29;20039;-79
2023/04/30 02:42:08;;;;;;;12.48;11.23;;;13.80;58.90;;;;;;4941883;29;20377;-78
2023/04/30 02:44:34;;;;;;;12.15;10.82;;;13.80;58.90;;;;;;4944544;28;20035;-80
2023/04/30 02:47:01;;;;;;;12.25;11.02;;;13.80;58.90;;;;;;4946456;28;20293;-79
2023/04/30 02:49:28;;;;;;;12.45;11.25;;;13.80;59.00;;;;;;4950412;28;20126;-78
2023/04/30 02:51:54;;;;;;;12.45;10.63;;;13.70;58.80;;;;;;4947481;28;20078;-78
2023/04/30 02:54:20;;;;;;;13.05;10.80;;;13.70;58.80;;;;;;4945269;28;20382;-79
2023/04/30 02:56:46;;;;;;;12.90;11.70;;;13.70;59.40;;;;;;4945910;29;20130;-77
2023/04/30 02:59:12;;;;;;;11.50;10.32;;;13.70;58.90;;;;;;4937284;28;20127;-78
2023/04/30 03:01:38;;;;;;;12.55;11.32;;;13.70;59.00;;;;;;4943588;29;20500;-78
2023/04/30 03:04:04;;;;;;;13.48;10.48;;;13.60;58.80;;;;;;4943481;28;20039;-80
2023/04/30 03:06:33;;;;;;;13.40;11.50;;;13.60;58.80;;;;;;4944695;29;20429;-81
2023/04/30 03:09:00;;;;;;;11.90;10.80;;;13.60;58.80;;;;;;4952354;28;20522;-78
2023/04/30 03:11:26;;;;;;;12.77;11.15;;;13.60;58.80;;;;;;4952084;28;20039;-78
2023/04/30 03:13:52;;;;;;;11.80;10.52;;;13.60;58.80;;;;;;4949488;28;20045;-79
2023/04/30 03:16:19;;;;;;;12.07;10.77;;;13.60;58.80;;;;;;4932740;28;20059;-78
2023/04/30 03:18:46;;;;;;;11.77;10.57;;;13.60;58.90;;;;;;4951488;28;20482;-77
2023/04/30 03:21:12;;;;;;;13.07;11.57;;;13.50;58.70;;;;;;4952407;28;20034;-78
2023/04/30 03:23:38;;;;;;;13.45;10.60;;;13.50;58.70;;;;;;4952437;28;20035;-79
2023/04/30 03:26:04;;;;;;;12.02;10.82;;;13.50;58.80;;;;;;4953796;28;20043;-79
2023/04/30 03:28:30;;;;;;;14.60;11.80;;;13.50;58.80;;;;;;4950053;28;20046;-78
2023/04/30 03:30:58;;;;;;;13.30;11.23;;;13.50;59.30;;;;;;4937963;28;20171;-78
2023/04/30 03:33:23;;;;;;;12.25;10.18;;;13.50;58.80;;;;;;4960449;28;20042;-77
2023/04/30 03:35:50;;;;;;;12.07;10.95;;;13.50;58.80;;;;;;4942562;28;20036;-76
2023/04/30 03:38:17;;;;;;;12.93;11.27;;;13.50;58.80;;;;;;4948561;28;20147;-77
2023/04/30 03:40:43;;;;;;;13.57;12.15;;;13.40;58.70;;;;;;4921669;28;20121;-78
2023/04/30 03:43:08;;;;;;;13.25;11.23;;;13.40;58.70;;;;;;4944979;28;20499;-78
2023/04/30 03:45:35;;;;;;;12.48;11.18;;;13.40;58.70;;;;;;4951743;28;20583;-78
2023/04/30 03:48:01;;;;;;;13.48;10.93;;;13.40;58.80;;;;;;4951198;28;20147;-78
2023/04/30 03:50:27;;;;;;;12.18;10.88;;;13.40;58.70;;;;;;4952309;28;20034;-79
2023/04/30 03:52:53;;;;;;;12.30;11.10;;;13.40;58.80;;;;;;4950358;28;20035;-78
2023/04/30 03:55:18;;;;;;;13.73;12.13;;;13.40;58.80;;;;;;4949964;28;20035;-78
2023/04/30 03:57:44;;;;;;;13.27;11.90;;;13.40;58.80;;;;;;4950022;28;20067;-78
2023/04/30 04:00:14;;;;;;;12.88;11.57;;;13.40;58.80;;;;;;4945492;28;20035;-78
2023/04/30 04:02:43;;;;;;;13.27;11.98;;;13.40;58.80;;;;;;4931568;29;20035;-77
2023/04/30 04:05:10;;;;;;;13.65;12.15;;;13.30;58.70;;;;;;4946641;28;20103;-81
2023/04/30 04:07:36;;;;;;;13.88;12.45;;;13.30;58.70;;;;;;4940560;28;20044;-80
2023/04/30 04:10:02;;;;;;;14.02;12.57;;;13.30;58.80;;;;;;4945466;28;20027;-80
2023/04/30 04:12:30;;;;;;;13.20;12.02;;;13.30;58.70;;;;;;4941454;28;20036;-80
2023/04/30 04:14:56;;;;;;;14.25;12.27;;;13.30;58.80;;;;;;4950513;28;20030;-80
2023/04/30 04:17:23;;;;;;;13.48;12.15;;;13.40;59.00;;;;;;4950249;28;20038;-81
2023/04/30 04:19:49;;;;;;;13.98;12.55;;;13.30;58.70;;;;;;4952950;28;20152;-80
2023/04/30 04:22:16;;;;;;;14.93;13.13;;;13.30;58.80;;;;;;4935716;28;20400;-80
2023/04/30 04:24:43;;;;;;;13.43;11.45;;;13.30;58.80;;;;;;4949300;28;20046;-81
2023/04/30 04:27:12;;;;;;;14.02;12.63;;;13.30;58.80;;;;;;4933507;29;20536;-82
2023/04/30 04:29:38;;;;;;;15.55;13.27;;;13.30;58.80;;;;;;4948842;28;20602;-82
2023/04/30 04:32:04;;;;;;;14.75;12.88;;;13.30;58.80;;;;;;4951100;28;20134;-81
2023/04/30 04:34:32;;;;;;;14.07;12.70;;;13.30;58.80;;;;;;4957954;28;20697;-81
2023/04/30 04:36:58;;;;;;;13.77;12.30;;;13.30;58.80;;;;;;4948706;28;20633;-81
2023/04/30 04:39:24;;;;;;;14.05;12.60;;;13.30;58.90;;;;;;4952023;28;20053;-80
2023/04/30 04:41:50;;;;;;;14.50;12.98;;;13.30;59.30;;;;;;4928679;29;20109;-81
2023/04/30 04:44:17;;;;;;;14.70;13.20;;;13.30;58.90;;;;;;4950128;28;20553;-82
2023/04/30 04:46:43;;;;;;;15.23;13.75;;;13.30;58.90;;;;;;4945575;28;20130;-82
2023/04/30 04:49:09;;;;;;;16.92;15.05;;;13.30;59.00;;;;;;4945756;28;20567;-82
2023/04/30 04:51:35;;;;;;;15.43;13.82;;;13.30;59.00;;;;;;4928213;29;20050;-80
2023/04/30 04:54:01;;;;;;;14.70;13.15;;;13.30;59.00;;;;;;4948122;28;20039;-79
2023/04/30 04:56:27;;;;;;;15.25;13.60;;;13.30;59.10;;;;;;4937728;28;20043;-81
2023/04/30 04:58:53;;;;;;;14.77;13.15;;;13.30;59.10;;;;;;4949761;28;20039;-81
2023/04/30 05:01:20;;;;;;;17.08;15.05;;;13.30;59.20;;;;;;4940303;28;20035;-80
2023/04/30 05:03:46;;;;;;;17.92;14.93;;;13.30;59.20;;;;;;4942580;28;20031;-80
2023/04/30 05:06:12;;;;;;;17.08;15.10;;;13.30;59.20;;;;;;4940132;28;20035;-78
2023/04/30 05:08:38;;;;;;;15.98;14.38;;;13.30;59.30;;;;;;4937457;28;20171;-77
2023/04/30 05:11:04;;;;;;;15.77;14.18;;;13.30;59.30;;;;;;4942070;28;20081;-76
2023/04/30 05:13:30;;;;;;;15.38;13.82;;;13.30;59.40;;;;;;4939624;28;20043;-80
2023/04/30 05:15:56;;;;;;;17.15;14.13;;;13.30;59.40;;;;;;4937116;28;20039;-79
2023/04/30 05:18:22;;;;;;;16.52;14.80;;;13.30;59.50;;;;;;4941379;28;20090;-78
2023/04/30 05:20:48;;;;;;;15.63;14.02;;;13.30;59.50;;;;;;4941483;28;20046;-79
2023/04/30 05:23:14;;;;;;;17.00;15.00;;;13.30;59.50;;;;;;4938740;28;20094;-82
2023/04/30 05:25:40;;;;;;;17.33;15.60;;;13.30;59.50;;;;;;4938629;28;20035;-78
2023/04/30 05:28:06;;;;;;;15.40;13.82;;;13.30;59.50;;;;;;4938891;28;20039;-78
2023/04/30 05:30:32;;;;;;;15.85;14.25;;;13.30;59.50;;;;;;4937782;28;20518;-79
2023/04/30 05:32:58;;;;;;;15.95;14.35;;;13.30;59.50;;;;;;4935782;28;21340;-78
2023/04/30 05:35:24;;;;;;;15.95;14.43;;;13.40;59.70;;;;;;4936886;28;20147;-78
2023/04/30 05:37:50;;;;;;;17.17;15.27;;;13.40;59.70;;;;;;4935988;28;20126;-78
2023/04/30 05:40:16;;;;;;;16.10;14.48;;;13.40;59.70;;;;;;4961131;28;20035;-79
2023/04/30 05:42:45;;;;;;;17.30;15.27;;;13.40;59.70;;;;;;4963078;28;20038;-78
2023/04/30 05:45:13;;;;;;;17.95;15.18;;;13.40;59.80;;;;;;4961186;28;20019;-79
2023/04/30 05:47:39;;;;;;;19.80;15.90;;;13.40;59.80;;;;;;4965201;28;20047;-78
2023/04/30 05:50:06;;;;;;;16.85;15.07;;;13.40;59.80;;;;;;4965816;28;20110;-78
2023/04/30 05:52:32;;;;;;;17.25;15.45;;;13.40;59.90;;;;;;4960015;28;20622;-81
2023/04/30 05:54:58;;;;;;;17.83;16.02;;;13.40;59.90;;;;;;4938083;28;20027;-79
2023/04/30 05:57:24;;;;;;;17.35;15.55;;;13.40;59.90;;;;;;4940052;28;20431;-81
2023/04/30 05:59:50;;;;;;;16.67;14.93;;;13.40;59.90;;;;;;4934352;28;20032;-82
2023/04/30 06:02:16;;;;;;;18.45;16.55;;;13.40;60.00;;;;;;4936365;28;20431;-80
2023/04/30 06:04:42;;;;;;;17.92;16.13;;;13.40;60.00;;;;;;4935673;28;20457;-79
2023/04/30 06:07:08;;;;;;;18.38;15.98;;;13.40;60.00;;;;;;4938253;28;20054;-82
2023/04/30 06:09:34;;;;;;;19.35;17.38;;;13.40;60.00;;;;;;4937014;28;20034;-80
2023/04/30 06:12:01;;;;;;;19.17;16.45;;;13.40;60.00;;;;;;4934152;28;20050;-79
2023/04/30 06:14:27;;;;;;;17.88;15.57;;;13.40;60.00;;;;;;4934894;28;20515;-79
2023/04/30 06:16:53;;;;;;;19.42;17.40;;;13.40;60.00;;;;;;4934748;28;20106;-80
2023/04/30 06:19:19;;;;;;;18.42;16.17;;;13.50;60.20;;;;;;4935539;28;20082;-81
2023/04/30 06:21:45;;;;;;;20.48;18.38;;;13.50;60.10;;;;;;4935483;28;20450;-80
2023/04/30 06:24:11;;;;;;;18.58;16.75;;;13.60;60.20;;;;;;4932683;28;20372;-79
2023/04/30 06:26:37;;;;;;;20.77;18.55;;;13.60;60.20;;;;;;4937384;28;20106;-79
2023/04/30 06:29:03;;;;;;;19.50;17.50;;;13.60;60.20;;;;;;4934841;28;20031;-78
2023/04/30 06:31:31;;;;;;;19.88;17.85;;;13.70;60.30;;;;;;4937376;28;20035;-76
2023/04/30 06:33:57;;;;;;;21.95;19.83;;;13.70;60.20;;;;;;4934855;28;20517;-76
2023/04/30 06:36:23;;;;;;;20.98;18.50;;;13.80;60.30;;;;;;4945447;28;20035;-79
2023/04/30 06:38:49;;;;;;;22.25;19.80;;;13.80;60.30;;;;;;4941266;28;20039;-77
2023/04/30 06:41:15;;;;;;;18.80;16.75;;;13.80;60.20;;;;;;4932380;28;20058;-77
2023/04/30 06:43:42;;;;;;;18.98;17.00;;;13.90;60.50;;;;;;4938716;28;20090;-79
2023/04/30 06:46:08;;;;;;;20.52;18.42;;;14.00;61.10;;;;;;4937021;28;20043;-78
2023/04/30 06:48:34;;;;;;;18.92;16.98;;;14.10;61.60;;;;;;4938557;28;20526;-77
2023/04/30 06:51:00;;;;;;;19.58;15.57;;;14.20;62.00;;;;;;4938802;28;20066;-77
2023/04/30 06:53:25;;;;;;;18.92;16.95;;;14.30;62.40;;;;;;4939674;28;20028;-78
2023/04/30 06:55:51;;;;;;;19.38;17.33;;;14.40;62.80;;;;;;4938119;28;20547;-78
2023/04/30 06:58:18;;;;;;;19.40;17.48;;;14.50;63.20;;;;;;4938470;28;20128;-77
2023/04/30 07:00:44;;;;;;;20.38;18.13;;;14.60;63.60;;;;;;4938921;28;20395;-77
2023/04/30 07:03:10;;;;;;;21.33;18.85;;;14.80;64.00;;;;;;4939425;28;20031;-79
2023/04/30 07:05:36;;;;;;;19.45;17.52;;;15.00;64.30;;;;;;4940577;28;20073;-79
2023/04/30 07:08:03;;;;;;;20.10;17.98;;;15.00;64.30;;;;;;4939445;28;20551;-78
2023/04/30 07:10:30;;;;;;;20.48;18.48;;;15.20;64.70;;;;;;4936029;28;20075;-79
2023/04/30 07:12:56;;;;;;;20.20;18.08;;;15.30;64.80;;;;;;4933805;28;20313;-78
2023/04/30 07:15:22;;;;;;;19.10;17.13;;;15.50;65.10;;;;;;4938711;28;20238;-78
2023/04/30 07:17:47;;;;;;;22.25;19.85;;;15.60;65.30;;;;;;4941406;28;20035;-81
2023/04/30 07:20:14;;;;;;;20.45;18.27;;;15.70;65.50;;;;;;4937268;28;20471;-86
2023/04/30 07:22:43;;;;;;;22.75;20.40;;;15.80;65.80;;;;;;4940794;28;20039;-78
2023/04/30 07:25:10;;;;;;;21.55;19.30;;;15.90;66.10;;;;;;4937623;28;20414;-78
2023/04/30 07:27:36;;;;;;;26.83;19.92;;;15.90;66.20;;;;;;4944155;28;20057;-77
2023/04/30 07:30:03;;;;;;;20.75;18.48;;;16.00;66.50;;;;;;4934599;28;20410;-78
2023/04/30 07:32:29;;;;;;;20.95;18.52;;;16.00;66.60;;;;;;4956134;28;20039;-78
2023/04/30 07:34:55;;;;;;;20.58;18.58;;;16.10;66.90;;;;;;4946983;28;20071;-78
2023/04/30 07:37:21;;;;;;;19.80;17.80;;;16.10;66.90;;;;;;4940170;28;20501;-77
2023/04/30 07:39:47;;;;;;;24.50;19.30;;;16.10;67.00;;;;;;4939762;28;20141;-78
2023/04/30 07:42:13;;;;;;;21.52;19.33;;;16.20;67.20;;;;;;4922964;28;20147;-77
2023/04/30 07:44:40;;;;;;;23.77;20.92;;;16.20;67.10;;;;;;4940624;28;20122;-78
2023/04/30 07:47:06;;;;;;;22.10;19.75;;;16.20;67.10;;;;;;4944842;28;20062;-78
2023/04/30 07:49:32;;;;;;;23.67;21.23;;;16.30;67.10;;;;;;4932573;28;20054;-77
2023/04/30 07:51:59;;;;;;;23.60;21.25;;;16.30;67.00;;;;;;4935496;28;20368;-77
2023/04/30 07:54:26;;;;;;;45.28;29.17;;;16.30;66.80;;;;;;4938676;28;20459;-77
2023/04/30 07:56:52;;;;;;;128.82;70.10;;;16.30;66.80;;;;;;4938194;28;20035;-79
2023/04/30 07:59:20;;;;;;;121.70;62.15;;;16.30;66.90;;;;;;4934358;28;20038;-79
2023/04/30 08:01:46;;;;;;;95.68;55.05;;;16.40;67.30;;;;;;4938512;28;20573;-84
2023/04/30 08:04:12;;;;;;;69.43;45.83;;;16.50;67.80;;;;;;4932643;28;20034;-85
2023/04/30 08:06:38;;;;;;;71.07;43.45;;;16.50;67.90;;;;;;4935587;28;20047;-84
2023/04/30 08:09:03;;;;;;;56.33;38.42;;;16.50;68.00;;;;;;4937037;28;20461;-84
2023/04/30 08:11:29;;;;;;;54.03;35.03;;;16.60;68.20;;;;;;4933076;28;21042;-83
2023/04/30 08:13:55;;;;;;;48.08;34.13;;;16.60;68.30;;;;;;4933589;28;20034;-77
2023/04/30 08:16:22;;;;;;;45.15;30.10;;;16.60;68.30;;;;;;4932295;28;20230;-82
2023/04/30 08:18:48;;;;;;;42.60;29.15;;;16.60;68.30;;;;;;4938226;28;20374;-82
2023/04/30 08:21:16;;;;;;;41.95;29.20;;;16.60;68.30;;;;;;4942766;28;20035;-82
2023/04/30 08:23:42;;;;;;;36.58;27.75;;;16.70;68.40;;;;;;4947311;28;20094;-81
2023/04/30 08:26:08;;;;;;;37.17;26.70;;;16.70;68.40;;;;;;4937892;28;20476;-81
2023/04/30 08:28:35;;;;;;;34.97;24.55;;;16.70;68.40;;;;;;4940057;28;20039;-90
2023/04/30 08:31:01;;;;;;;26.92;21.77;;;16.70;68.40;;;;;;4938917;28;20039;-85
2023/04/30 08:33:27;;;;;;;31.90;24.77;;;16.70;68.40;;;;;;4938955;28;20039;-85
2023/04/30 08:35:53;;;;;;;30.08;23.73;;;16.70;68.40;;;;;;4934530;28;20035;-86
2023/04/30 08:38:19;;;;;;;29.38;24.92;;;16.70;68.40;;;;;;4937494;28;20583;-86
2023/04/30 08:40:51;;;;;;;30.23;24.35;;;16.60;68.30;;;;;;4938956;28;20058;-86
2023/04/30 08:43:19;;;;;;;30.83;22.70;;;16.60;68.30;;;;;;4932415;28;20062;-85
2023/04/30 08:45:45;;;;;;;26.25;22.40;;;16.60;68.30;;;;;;4935979;28;20859;-84
2023/04/30 08:48:13;;;;;;;25.50;20.98;;;16.60;68.20;;;;;;4937859;28;20517;-85
2023/04/30 08:50:39;;;;;;;25.73;21.52;;;16.60;68.30;;;;;;4939342;28;20027;-85
2023/04/30 08:53:07;;;;;;;23.58;20.08;;;16.70;68.40;;;;;;4940102;28;20027;-87
2023/04/30 08:55:33;;;;;;;23.30;20.60;;;16.60;68.30;;;;;;4938554;28;20039;-92
2023/04/30 08:57:59;;;;;;;24.45;21.08;;;16.70;68.40;;;;;;4943578;28;20023;-91
2023/04/30 09:00:26;;;;;;;23.85;21.30;;;16.70;68.40;;;;;;4938234;28;20400;-89
2023/04/30 09:02:52;;;;;;;33.88;20.70;;;16.70;68.40;;;;;;4941175;28;20038;-82
2023/04/30 09:05:18;;;;;;;25.10;19.88;;;16.70;68.30;;;;;;4943184;28;20035;-81
2023/04/30 09:07:46;;;;;;;25.13;19.75;;;16.80;68.50;;;;;;4942634;28;20141;-82
2023/04/30 09:10:20;;;;;;;24.25;19.48;;;16.80;68.40;;;;;;4946956;28;20416;-81
2023/04/30 09:13:02;;;;;;;22.58;18.98;;;16.80;68.30;;;;;;4929115;28;20039;-82
2023/04/30 09:15:29;;;;;;;22.60;20.17;;;16.90;68.50;;;;;;4945965;28;20035;-80
2023/04/30 09:18:17;;;;;;;21.92;19.35;;;16.90;68.30;;;;;;4940608;28;20502;-82
2023/04/30 09:21:07;;;;;;;22.42;19.77;;;17.00;68.30;;;;;;4923143;29;20059;-83
2023/04/30 09:23:33;;;;;;;20.17;18.15;;;17.10;68.30;;;;;;4933431;28;20239;-81
2023/04/30 09:25:59;;;;;;;22.80;19.48;;;17.20;68.10;;;;;;4939629;28;20047;-82
2023/04/30 09:28:27;;;;;;;21.90;19.25;;;17.30;68.10;;;;;;4945526;28;20031;-81
2023/04/30 09:30:57;;;;;;;20.00;17.90;;;17.40;68.00;;;;;;4923206;28;20039;-83
2023/04/30 09:33:23;;;;;;;21.63;19.33;;;17.50;68.00;;;;;;4940077;28;20035;-83
2023/04/30 09:35:49;;;;;;;24.92;20.25;;;17.50;67.80;;;;;;4936510;28;20503;-82
2023/04/30 09:38:31;;;;;;;21.05;18.98;;;17.70;67.90;;;;;;4941972;28;20039;-82
2023/04/30 09:40:59;;;;;;;23.45;19.77;;;17.70;67.70;;;;;;4937478;28;20027;-83
2023/04/30 09:43:27;;;;;;;20.02;17.92;;;17.80;67.70;;;;;;4934888;28;20062;-82
2023/04/30 09:45:53;;;;;;;21.25;18.95;;;17.80;67.40;;;;;;4939034;28;20035;-82
2023/04/30 09:48:23;;;;;;;21.48;19.25;;;17.90;67.40;;;;;;4937066;28;20529;-76
2023/04/30 09:50:50;;;;;;;22.08;19.73;;;17.90;67.30;;;;;;4930973;29;20028;-77
2023/04/30 09:53:17;;;;;;;21.60;19.27;;;18.00;67.30;;;;;;4944174;28;20289;-77
2023/04/30 09:55:48;;;;;;;23.17;20.88;;;18.00;67.30;;;;;;4942254;28;20027;-76
2023/04/30 09:58:16;;;;;;;22.25;19.08;;;17.90;67.00;;;;;;4940529;28;20081;-77
2023/04/30 10:00:44;;;;;;;26.17;20.92;;;17.90;66.90;;;;;;4939123;28;20103;-76
2023/04/30 10:03:12;;;;;;;23.08;20.17;;;17.90;67.00;;;;;;4933522;28;20044;-76
2023/04/30 10:05:46;;;;;;;25.02;22.08;;;17.80;66.90;;;;;;4932817;28;20169;-76
2023/04/30 10:08:17;;;;;;;23.35;20.85;;;17.80;66.90;;;;;;4945154;28;20069;-77
2023/04/30 10:10:46;;;;;;;25.40;22.88;;;17.70;66.70;;;;;;4941381;28;20031;-78
2023/04/30 10:13:18;;;;;;;26.55;23.13;;;17.70;66.80;;;;;;4932871;28;20046;-78
2023/04/30 10:15:53;;;;;;;24.13;21.65;;;17.60;66.60;;;;;;4945291;28;20015;-78
2023/04/30 10:18:27;;;;;;;23.15;20.77;;;17.60;66.60;;;;;;4946903;28;20027;-77
2023/04/30 10:20:54;;;;;;;25.02;22.05;;;17.60;66.60;;;;;;4952888;28;20046;-76
2023/04/30 10:23:21;;;;;;;24.92;22.25;;;17.60;66.60;;;;;;4960878;28;20054;-77
2023/04/30 10:25:47;;;;;;;26.23;23.52;;;17.70;66.80;;;;;;4966777;28;20035;-77
2023/04/30 10:28:13;;;;;;;26.73;24.00;;;17.60;66.70;;;;;;4958082;28;20062;-78
2023/04/30 10:30:44;;;;;;;26.65;23.98;;;17.70;67.20;;;;;;4959139;28;20043;-77
2023/04/30 10:33:33;;;;;;;25.20;22.63;;;17.80;67.30;;;;;;4960760;28;20047;-80
2023/04/30 10:36:03;;;;;;;23.15;20.95;;;17.80;67.30;;;;;;4941983;28;20039;-78
2023/04/30 10:38:31;;;;;;;62.55;49.38;;;17.70;67.00;;;;;;4944607;28;20639;-80
2023/04/30 10:40:58;;;;;;;101.47;68.78;;;17.70;67.40;;;;;;4938436;28;20050;-79
2023/04/30 10:43:25;;;;;;;94.63;68.95;;;17.80;69.00;;;;;;4949301;28;20031;-80
2023/04/30 10:45:51;;;;;;;73.93;56.13;;;17.90;70.30;;;;;;4936484;28;20052;-80
2023/04/30 10:48:23;;;;;;;78.38;58.85;;;18.00;71.20;;;;;;4935168;28;20439;-79
2023/04/30 10:50:56;;;;;;;66.55;51.58;;;18.20;72.10;;;;;;4938103;28;20118;-79
2023/04/30 10:53:24;;;;;;;68.22;52.58;;;18.30;72.60;;;;;;4931294;28;20031;-79
2023/04/30 10:56:05;;;;;;;61.83;51.55;;;18.50;73.20;;;;;;4942749;28;20543;-80
2023/04/30 10:58:33;;;;;;;57.72;48.15;;;18.70;74.50;;;;;;4935624;28;20045;-76
2023/04/30 11:01:00;;;;;;;56.03;47.35;;;18.90;74.60;;;;;;4935266;28;20043;-77
2023/04/30 11:03:31;;;;;;;57.78;47.55;;;19.00;75.00;;;;;;4935455;28;20031;-76
2023/04/30 11:05:59;;;;;;;53.75;44.58;;;19.10;75.30;;;;;;4934011;29;20036;-75
2023/04/30 11:08:35;;;;;;;54.08;45.63;;;19.30;75.60;;;;;;4931752;28;20130;-76
2023/04/30 11:11:02;;;;;;;52.00;44.03;;;19.40;76.00;;;;;;4937410;28;20035;-77
2023/04/30 11:13:28;;;;;;;60.67;46.83;;;19.50;76.00;;;;;;4932851;28;20204;-77
2023/04/30 11:16:01;;;;;;;53.95;42.28;;;19.60;76.10;;;;;;4935304;29;20031;-77
2023/04/30 11:18:27;;;;;;;57.08;43.83;;;19.70;76.60;;;;;;4935851;28;20053;-79
2023/04/30 11:20:56;;;;;;;67.57;49.78;;;19.70;76.40;;;;;;4934462;28;20035;-79
2023/04/30 11:23:24;;;;;;;66.95;47.92;;;19.80;77.00;;;;;;4936332;28;20047;-80
2023/04/30 11:25:53;;;;;;;59.05;45.00;;;19.80;77.30;;;;;;4936620;28;20111;-79
2023/04/30 11:28:27;;;;;;;67.47;46.70;;;19.90;77.70;;;;;;4941303;28;20042;-80
2023/04/30 11:30:59;;;;;;;52.08;43.00;;;20.10;78.40;;;;;;4936218;28;20031;-81
2023/04/30 11:33:26;;;;;;;51.70;38.85;;;20.20;79.20;;;;;;4933140;28;20139;-79
2023/04/30 11:35:57;;;;;;;44.47;38.25;;;20.30;78.80;;;;;;4934542;28;20290;-94
2023/04/30 11:38:36;;;;;;;46.22;36.38;;;20.30;78.80;;;;;;4932039;28;20043;-95
2023/04/30 11:41:03;;;;;;;43.13;35.42;;;20.30;79.00;;;;;;4950704;28;20417;-94
2023/04/30 11:43:33;;;;;;;37.05;33.10;;;20.30;78.70;;;;;;4936598;28;20043;-93
2023/04/30 11:46:04;;;;;;;36.17;31.55;;;20.30;78.60;;;;;;4942074;29;20039;-94
2023/04/30 11:48:31;;;;;;;34.85;30.70;;;20.30;78.30;;;;;;4944253;28;20063;-93
2023/04/30 11:50:57;;;;;;;33.90;29.42;;;20.20;77.90;;;;;;4941847;28;20031;-78
2023/04/30 11:53:27;;;;;;;35.92;31.02;;;20.30;77.90;;;;;;4935200;28;20037;-76
2023/04/30 11:55:54;;;;;;;30.88;27.63;;;20.30;77.60;;;;;;4937441;28;20029;-77
2023/04/30 11:58:21;;;;;;;31.17;27.88;;;20.30;77.30;;;;;;4935605;28;20461;-77
2023/04/30 12:00:50;;;;;;;30.50;27.25;;;20.20;76.80;;;;;;4937982;28;20035;-76
2023/04/30 12:03:17;;;;;;;30.95;27.55;;;20.20;76.40;;;;;;4932437;28;20483;-75
2023/04/30 12:05:44;;;;;;;29.45;26.40;;;20.10;75.90;;;;;;4939611;29;20172;-76
2023/04/30 12:08:11;;;;;;;29.58;25.90;;;20.00;75.50;;;;;;4936678;28;20035;-76
2023/04/30 12:10:37;;;;;;;28.67;25.70;;;20.00;75.20;;;;;;4935129;29;20046;-76
2023/04/30 12:13:03;;;;;;;29.02;25.92;;;20.00;74.90;;;;;;4936301;28;20035;-77
2023/04/30 12:15:31;;;;;;;28.70;25.77;;;20.10;74.70;;;;;;4935392;28;20567;-76
2023/04/30 12:17:58;;;;;;;28.40;25.40;;;20.10;74.20;;;;;;4934409;28;20290;-76
2023/04/30 12:20:27;;;;;;;26.83;24.10;;;20.20;73.90;;;;;;4937930;28;20071;-76
2023/04/30 12:22:53;;;;;;;26.75;23.38;;;20.40;73.60;;;;;;4936020;28;20047;-76
2023/04/30 12:25:20;;;;;;;24.02;21.55;;;20.50;73.20;;;;;;4935782;29;20038;-77
2023/04/30 12:27:48;;;;;;;24.75;22.25;;;20.60;72.80;;;;;;4936571;28;20054;-78
2023/04/30 12:30:18;;;;;;;23.20;20.90;;;20.60;72.30;;;;;;4937298;28;20038;-79